createdAt,value
2022-10-15T00:01:23.330Z,5.07
2022-10-15T00:03:50.276Z,5.15
2022-10-15T00:06:19.289Z,4.88
2022-10-15T00:08:47.051Z,5.13
2022-10-15T00:11:16.979Z,4.80
2022-10-15T00:13:44.361Z,5.10
2022-10-15T00:16:13.761Z,4.60
2022-10-15T00:18:41.441Z,4.70
2022-10-15T00:21:10.195Z,4.88
2022-10-15T00:23:37.402Z,5.75
2022-10-15T00:26:12.726Z,4.68
2022-10-15T00:28:39.612Z,4.45
2022-10-15T00:31:12.374Z,4.00
2022-10-15T00:33:39.569Z,4.72
2022-10-15T00:36:13.936Z,4.40
2022-10-15T00:38:40.798Z,4.70
2022-10-15T00:41:12.585Z,4.50
2022-10-15T00:43:40.291Z,3.60
2022-10-15T00:46:25.126Z,3.92
2022-10-15T00:48:57.220Z,3.50
2022-10-15T00:51:30.120Z,2.92
2022-10-15T00:53:57.059Z,2.80
2022-10-15T00:56:26.458Z,2.97
2022-10-15T00:58:55.541Z,2.60
2022-10-15T01:01:23.298Z,2.22
2022-10-15T01:03:50.151Z,2.22
2022-10-15T01:06:17.626Z,2.10
2022-10-15T01:08:44.976Z,2.17
2022-10-15T01:11:29.665Z,1.90
2022-10-15T01:14:14.995Z,2.00
2022-10-15T01:16:57.869Z,2.35
2022-10-15T01:19:54.240Z,2.07
2022-10-15T01:22:39.459Z,2.15
2022-10-15T01:25:27.716Z,1.92
2022-10-15T01:28:24.263Z,1.85
2022-10-15T01:30:59.826Z,1.85
2022-10-15T01:33:32.231Z,2.15
2022-10-15T01:36:39.382Z,1.85
2022-10-15T01:39:27.448Z,2.17
2022-10-15T01:42:03.794Z,2.03
2022-10-15T01:44:45.296Z,2.00
2022-10-15T01:47:24.323Z,2.30
2022-10-15T01:49:54.229Z,2.20
2022-10-15T01:52:26.267Z,2.33
2022-10-15T01:54:54.183Z,2.80
2022-10-15T01:57:25.347Z,2.53
2022-10-15T01:59:53.942Z,2.20
2022-10-15T02:02:20.953Z,2.20
2022-10-15T02:04:48.868Z,2.08
2022-10-15T02:07:24.520Z,2.20
2022-10-15T02:09:57.047Z,2.25
2022-10-15T02:12:57.880Z,2.05
2022-10-15T02:15:36.769Z,2.20
2022-10-15T02:18:10.785Z,2.13
2022-10-15T02:20:41.537Z,2.10
2022-10-15T02:23:36.594Z,2.10
2022-10-15T02:26:08.285Z,2.00
2022-10-15T02:28:38.216Z,1.88
2022-10-15T02:31:06.089Z,2.13
2022-10-15T02:33:34.780Z,2.08
2022-10-15T02:36:01.920Z,2.10
2022-10-15T02:38:31.271Z,2.15
2022-10-15T02:40:58.650Z,2.40
2022-10-15T02:43:25.385Z,2.50
2022-10-15T02:45:52.167Z,2.35
2022-10-15T02:48:19.021Z,2.67
2022-10-15T02:50:45.742Z,2.70
2022-10-15T02:53:12.458Z,2.30
2022-10-15T02:55:39.285Z,2.95
2022-10-15T02:58:06.034Z,2.20
2022-10-15T03:00:32.826Z,2.22
2022-10-15T03:02:59.604Z,2.35
2022-10-15T03:07:59.824Z,2.60
2022-10-15T03:10:26.910Z,2.50
2022-10-15T03:12:53.622Z,2.25
2022-10-15T03:15:20.699Z,2.10
2022-10-15T03:17:47.506Z,2.10
2022-10-15T03:20:14.307Z,2.00
2022-10-15T03:22:41.021Z,2.25
2022-10-15T03:25:07.909Z,2.20
2022-10-15T03:27:34.645Z,1.80
2022-10-15T03:30:01.391Z,2.00
2022-10-15T03:32:28.270Z,1.67
2022-10-15T03:34:55.022Z,1.83
2022-10-15T03:37:22.066Z,1.60
2022-10-15T03:39:49.075Z,1.98
2022-10-15T03:42:15.817Z,2.33
2022-10-15T03:44:42.555Z,1.80
2022-10-15T03:47:09.349Z,1.95
2022-10-15T03:49:36.062Z,1.98
2022-10-15T03:52:03.230Z,1.42
2022-10-15T03:54:29.969Z,1.63
2022-10-15T03:56:56.765Z,1.55
2022-10-15T03:59:23.537Z,1.40
2022-10-15T04:01:50.313Z,1.40
2022-10-15T04:04:17.037Z,1.45
2022-10-15T04:06:47.647Z,1.33
2022-10-15T04:09:15.434Z,1.40
2022-10-15T04:11:42.170Z,1.55
2022-10-15T04:14:08.986Z,1.70
2022-10-15T04:16:35.768Z,1.38
2022-10-15T04:19:04.096Z,1.60
2022-10-15T04:21:31.903Z,1.45
2022-10-15T04:23:58.682Z,1.60
2022-10-15T04:26:25.430Z,1.48
2022-10-15T04:28:52.222Z,1.42
2022-10-15T04:31:19.094Z,1.80
2022-10-15T04:33:49.156Z,1.33
2022-10-15T04:38:47.677Z,1.40
2022-10-15T04:41:14.523Z,1.55
2022-10-15T04:43:41.394Z,1.42
2022-10-15T04:46:09.316Z,1.30
2022-10-15T04:48:40.489Z,1.25
2022-10-15T04:51:13.329Z,1.70
2022-10-15T04:53:40.467Z,1.40
2022-10-15T04:56:12.498Z,1.20
2022-10-15T04:58:39.403Z,1.17
2022-10-15T05:01:08.359Z,1.10
2022-10-15T05:03:38.467Z,1.23
2022-10-15T05:06:11.031Z,1.05
2022-10-15T05:08:38.523Z,1.17
2022-10-15T05:11:08.673Z,1.40
2022-10-15T05:13:36.014Z,1.73
2022-10-15T05:16:14.315Z,1.60
2022-10-15T05:18:42.141Z,1.48
2022-10-15T05:21:09.848Z,1.00
2022-10-15T05:23:37.249Z,0.70
2022-10-15T05:26:06.851Z,0.90
2022-10-15T05:28:33.848Z,0.90
2022-10-15T05:31:09.261Z,1.00
2022-10-15T05:33:36.561Z,1.00
2022-10-15T05:36:11.488Z,0.98
2022-10-15T05:38:38.367Z,0.90
2022-10-15T05:41:05.279Z,1.00
2022-10-15T05:43:33.314Z,1.10
2022-10-15T05:46:01.863Z,1.00
2022-10-15T05:48:28.776Z,1.00
2022-10-15T05:51:04.286Z,0.98
2022-10-15T05:53:31.203Z,0.90
2022-10-15T05:56:01.212Z,0.93
2022-10-15T05:58:32.118Z,0.90
2022-10-15T06:01:04.588Z,0.90
2022-10-15T06:03:31.883Z,0.82
2022-10-15T06:05:58.638Z,0.88
2022-10-15T06:08:26.002Z,0.85
2022-10-15T06:10:52.768Z,0.90
2022-10-15T06:13:19.559Z,1.17
2022-10-15T06:15:46.338Z,0.90
2022-10-15T06:18:16.095Z,1.10
2022-10-15T06:20:43.872Z,1.10
2022-10-15T06:23:12.275Z,1.00
2022-10-15T06:25:39.249Z,1.33
2022-10-15T06:28:07.102Z,1.00
2022-10-15T06:30:33.885Z,1.10
2022-10-15T06:33:00.872Z,1.30
2022-10-15T06:35:30.376Z,1.77
2022-10-15T06:38:03.049Z,1.30
2022-10-15T06:40:31.306Z,1.52
2022-10-15T06:43:09.531Z,1.85
2022-10-15T06:45:45.074Z,1.75
2022-10-15T06:48:11.857Z,2.05
2022-10-15T06:50:39.289Z,1.80
2022-10-15T06:53:06.579Z,1.85
2022-10-15T06:55:38.488Z,1.92
2022-10-15T06:58:07.811Z,1.60
2022-10-15T07:03:06.910Z,2.22
2022-10-15T07:05:34.527Z,1.70
2022-10-15T07:08:01.742Z,1.90
2022-10-15T07:10:29.768Z,1.50
2022-10-15T07:13:00.970Z,2.00
2022-10-15T07:15:29.254Z,2.10
2022-10-15T07:17:57.925Z,1.45
2022-10-15T07:20:24.814Z,1.63
2022-10-15T07:23:02.136Z,1.75
2022-10-15T07:25:29.532Z,1.70
2022-10-15T07:27:59.063Z,1.50
2022-10-15T07:30:29.908Z,1.30
2022-10-15T07:32:58.143Z,1.20
2022-10-15T07:35:27.093Z,1.10
2022-10-15T07:37:55.137Z,1.45
2022-10-15T07:40:22.397Z,1.58
2022-10-15T07:42:57.038Z,2.97
2022-10-15T07:45:25.259Z,2.72
2022-10-15T07:47:53.857Z,2.20
2022-10-15T07:50:21.260Z,2.20
2022-10-15T07:52:48.217Z,1.90
2022-10-15T07:55:14.975Z,1.38
2022-10-15T07:57:41.741Z,1.40
2022-10-15T08:00:09.065Z,1.92
2022-10-15T08:02:35.833Z,1.52
2022-10-15T08:05:02.562Z,1.45
2022-10-15T08:07:29.523Z,1.35
2022-10-15T08:09:56.269Z,1.75
2022-10-15T08:12:23.262Z,1.40
2022-10-15T08:14:50.193Z,1.48
2022-10-15T08:17:16.988Z,1.27
2022-10-15T08:19:43.821Z,1.45
2022-10-15T08:22:10.886Z,1.77
2022-10-15T08:24:37.670Z,1.70
2022-10-15T08:27:04.618Z,1.67
2022-10-15T08:29:31.360Z,1.88
2022-10-15T08:31:58.098Z,1.73
2022-10-15T08:34:25.071Z,1.90
2022-10-15T08:36:52.193Z,1.23
2022-10-15T08:39:18.926Z,1.42
2022-10-15T08:41:53.205Z,1.08
2022-10-15T08:44:34.008Z,1.20
2022-10-15T08:47:08.177Z,1.10
2022-10-15T08:49:56.526Z,1.10
2022-10-15T08:52:44.428Z,1.30
2022-10-15T08:55:14.165Z,1.27
2022-10-15T08:57:59.666Z,1.55
2022-10-15T09:00:36.020Z,1.50
2022-10-15T09:03:17.824Z,1.58
2022-10-15T09:05:51.823Z,1.52
2022-10-15T09:08:24.032Z,0.68
2022-10-15T09:10:55.237Z,0.50
2022-10-15T09:13:30.070Z,1.02
2022-10-15T09:16:02.275Z,0.70
2022-10-15T09:18:32.298Z,0.70
2022-10-15T09:21:01.753Z,0.63
2022-10-15T09:23:31.979Z,0.82
2022-10-15T09:26:16.447Z,0.63
2022-10-15T09:28:46.325Z,0.70
2022-10-15T09:31:18.094Z,0.40
2022-10-15T09:33:54.311Z,0.60
2022-10-15T09:36:39.476Z,0.40
2022-10-15T09:39:16.739Z,0.40
2022-10-15T09:42:05.071Z,0.40
2022-10-15T09:44:38.727Z,0.50
2022-10-15T09:47:27.270Z,0.57
2022-10-15T09:49:54.073Z,0.38
2022-10-15T09:52:23.991Z,0.50
2022-10-15T09:55:00.298Z,0.65
2022-10-15T09:57:28.054Z,0.40
2022-10-15T09:59:55.885Z,0.60
2022-10-15T10:02:25.561Z,0.50
2022-10-15T10:04:53.199Z,0.40
2022-10-15T10:07:37.842Z,0.43
2022-10-15T10:10:21.665Z,0.40
2022-10-15T10:15:39.735Z,0.38
2022-10-15T10:18:17.704Z,0.50
2022-10-15T10:21:15.623Z,0.50
2022-10-15T10:23:45.027Z,0.60
2022-10-15T10:26:12.325Z,0.50
2022-10-15T10:29:15.788Z,0.60
2022-10-15T10:31:53.588Z,0.50
2022-10-15T10:34:32.260Z,0.70
2022-10-15T10:37:03.729Z,0.70
2022-10-15T10:39:33.808Z,0.70
2022-10-15T10:42:01.963Z,0.80
2022-10-15T10:44:39.463Z,0.73
2022-10-15T10:47:25.985Z,0.73
2022-10-15T10:49:58.243Z,0.60
2022-10-15T10:52:35.302Z,0.68
2022-10-15T10:55:18.327Z,0.90
2022-10-15T10:57:57.162Z,0.73
2022-10-15T11:00:40.940Z,0.60
2022-10-15T11:03:30.366Z,0.88
2022-10-15T11:06:18.596Z,0.73
2022-10-15T11:09:22.450Z,0.73
2022-10-15T11:12:08.098Z,0.70
2022-10-15T11:14:55.769Z,1.13
2022-10-15T11:17:28.423Z,0.65
2022-10-15T11:20:33.596Z,0.77
2022-10-15T11:23:29.478Z,1.30
2022-10-15T11:26:15.974Z,0.80
2022-10-15T11:29:11.463Z,0.77
2022-10-15T11:32:02.927Z,0.70
2022-10-15T11:34:44.484Z,0.73
2022-10-15T11:37:25.639Z,0.60
2022-10-15T11:40:01.243Z,0.60
2022-10-15T11:42:37.353Z,0.70
2022-10-15T11:45:22.714Z,0.57
2022-10-15T11:48:04.517Z,0.70
2022-10-15T11:50:49.972Z,0.50
2022-10-15T11:53:37.629Z,0.60
2022-10-15T11:56:12.358Z,0.60
2022-10-15T11:58:43.513Z,0.68
2022-10-15T12:01:38.806Z,0.50
2022-10-15T12:04:18.728Z,0.70
2022-10-15T12:06:50.083Z,0.50
2022-10-15T12:09:26.822Z,0.45
2022-10-15T12:12:04.418Z,0.55
2022-10-15T12:14:37.067Z,0.55
2022-10-15T12:17:35.780Z,0.45
2022-10-15T12:20:07.866Z,0.50
2022-10-15T12:22:38.626Z,0.60
2022-10-15T12:25:06.929Z,0.40
2022-10-15T12:27:36.033Z,0.40
2022-10-15T12:30:02.840Z,0.50
2022-10-15T12:32:46.459Z,0.55
2022-10-15T12:35:16.060Z,0.50
2022-10-15T12:37:46.047Z,0.38
2022-10-15T12:40:31.182Z,0.50
2022-10-15T12:43:04.009Z,0.50
2022-10-15T12:45:40.829Z,0.40
2022-10-15T12:48:16.443Z,0.40
2022-10-15T12:50:43.403Z,0.35
2022-10-15T12:53:28.626Z,0.25
2022-10-15T12:56:10.742Z,0.43
2022-10-15T12:58:46.344Z,0.30
2022-10-15T13:01:13.105Z,0.65
2022-10-15T13:04:00.123Z,0.30
2022-10-15T13:06:40.072Z,0.70
2022-10-15T13:09:09.936Z,0.50
2022-10-15T13:11:57.467Z,0.55
2022-10-15T13:14:51.060Z,0.50
2022-10-15T13:17:22.358Z,0.70
2022-10-15T13:19:59.065Z,0.60
2022-10-15T13:22:29.189Z,0.70
2022-10-15T13:24:56.479Z,0.57
2022-10-15T13:27:26.939Z,0.50
2022-10-15T13:30:15.562Z,0.55
2022-10-15T13:32:51.143Z,0.60
2022-10-15T13:35:33.014Z,0.40
2022-10-15T13:38:00.480Z,0.60
2022-10-15T13:40:29.487Z,0.57
2022-10-15T13:43:26.208Z,0.40
2022-10-15T13:46:01.398Z,0.70
2022-10-15T13:48:30.925Z,0.68
2022-10-15T13:50:58.890Z,0.50
2022-10-15T13:53:42.495Z,0.63
2022-10-15T13:56:25.371Z,0.57
2022-10-15T13:58:53.779Z,0.60
2022-10-15T14:01:23.364Z,0.40
2022-10-15T14:03:54.965Z,0.45
2022-10-15T14:06:21.690Z,0.50
2022-10-15T14:08:51.407Z,0.70
2022-10-15T14:11:18.982Z,0.40
2022-10-15T14:13:53.896Z,0.55
2022-10-15T14:16:42.132Z,0.40
2022-10-15T14:19:17.651Z,0.40
2022-10-15T14:21:47.287Z,0.60
2022-10-15T14:24:19.262Z,0.60
2022-10-15T14:26:47.398Z,0.70
2022-10-15T14:29:34.494Z,0.60
2022-10-15T14:32:01.421Z,0.60
2022-10-15T14:34:38.398Z,0.60
2022-10-15T14:37:42.581Z,0.55
2022-10-15T14:42:42.261Z,0.63
2022-10-15T14:45:18.068Z,0.70
2022-10-15T14:47:48.389Z,0.60
2022-10-15T14:50:16.054Z,1.13
2022-10-15T14:52:50.366Z,0.93
2022-10-15T14:55:28.311Z,0.60
2022-10-15T14:57:55.457Z,0.80
2022-10-15T15:00:27.585Z,0.80
2022-10-15T15:02:56.725Z,0.50
2022-10-15T15:05:28.481Z,0.40
2022-10-15T15:07:57.018Z,0.65
2022-10-15T15:10:27.394Z,0.55
2022-10-15T15:12:56.835Z,0.70
2022-10-15T15:15:26.461Z,0.80
2022-10-15T15:17:53.522Z,0.88
2022-10-15T15:20:21.280Z,0.70
2022-10-15T15:22:50.365Z,0.77
2022-10-15T15:25:20.685Z,0.70
2022-10-15T15:27:47.964Z,0.70
2022-10-15T15:30:18.919Z,0.70
2022-10-15T15:32:46.221Z,0.85
2022-10-15T15:35:16.831Z,1.10
2022-10-15T15:37:43.702Z,1.08
2022-10-15T15:40:10.911Z,0.93
2022-10-15T15:42:37.922Z,1.48
2022-10-15T15:45:05.169Z,1.90
2022-10-15T15:47:31.998Z,1.77
2022-10-15T15:49:58.847Z,1.50
2022-10-15T15:52:25.880Z,1.25
2022-10-15T15:54:52.903Z,1.13
2022-10-15T15:57:19.625Z,1.02
2022-10-15T15:59:46.506Z,1.50
2022-10-15T16:02:13.443Z,1.45
2022-10-15T16:04:40.227Z,2.13
2022-10-15T16:07:09.048Z,2.10
2022-10-15T16:09:38.879Z,2.22
2022-10-15T16:12:05.671Z,2.10
2022-10-15T16:14:32.556Z,2.03
2022-10-15T16:16:59.354Z,2.20
2022-10-15T16:19:26.183Z,2.13
2022-10-15T16:21:52.995Z,1.90
2022-10-15T16:24:19.767Z,2.28
2022-10-15T16:26:46.617Z,1.98
2022-10-15T16:29:15.161Z,2.10
2022-10-15T16:31:41.944Z,1.83
2022-10-15T16:34:08.912Z,2.03
2022-10-15T16:36:36.254Z,2.13
2022-10-15T16:39:04.525Z,2.53
2022-10-15T16:41:31.396Z,2.10
2022-10-15T16:43:58.373Z,2.28
2022-10-15T16:46:25.530Z,2.20
2022-10-15T16:48:54.302Z,2.25
2022-10-15T16:51:22.831Z,2.20
2022-10-15T16:53:51.425Z,2.90
2022-10-15T16:56:20.238Z,2.78
2022-10-15T16:58:47.543Z,3.47
2022-10-15T17:01:16.974Z,2.85
2022-10-15T17:03:45.504Z,3.40
2022-10-15T17:06:18.256Z,2.95
2022-10-15T17:08:50.741Z,2.90
2022-10-15T17:11:19.117Z,2.63
2022-10-15T17:13:46.822Z,2.70
2022-10-15T17:16:19.161Z,3.45
2022-10-15T17:18:46.602Z,3.47
2022-10-15T17:21:16.896Z,3.78
2022-10-15T17:23:43.693Z,6.13
2022-10-15T17:26:16.289Z,9.57
2022-10-15T17:28:46.747Z,10.83
2022-10-15T17:31:16.967Z,6.53
2022-10-15T17:33:44.782Z,5.85
2022-10-15T17:36:17.537Z,4.53
2022-10-15T17:38:45.086Z,3.55
2022-10-15T17:41:13.723Z,4.38
2022-10-15T17:43:42.647Z,4.28
2022-10-15T17:46:15.575Z,4.05
2022-10-15T17:48:42.901Z,3.20
2022-10-15T17:51:21.556Z,2.97
2022-10-15T17:53:51.371Z,2.42
2022-10-15T17:56:19.316Z,3.75
2022-10-15T17:58:46.529Z,3.45
2022-10-15T18:01:33.362Z,3.35
2022-10-15T18:04:07.187Z,3.63
2022-10-15T18:06:33.977Z,3.65
2022-10-15T18:09:01.103Z,3.80
2022-10-15T18:11:32.742Z,3.28
2022-10-15T18:14:00.016Z,3.72
2022-10-15T18:16:26.987Z,3.45
2022-10-15T18:18:54.969Z,3.85
2022-10-15T18:21:26.878Z,4.75
2022-10-15T18:23:56.219Z,4.93
2022-10-15T18:26:24.151Z,6.20
2022-10-15T18:28:54.794Z,7.65
2022-10-15T18:31:22.783Z,8.32
2022-10-15T18:33:54.868Z,7.70
2022-10-15T18:36:30.503Z,7.50
2022-10-15T18:38:58.363Z,8.20
2022-10-15T18:42:18.228Z,7.85
2022-10-15T18:44:44.986Z,7.03
2022-10-15T18:47:11.832Z,7.53
2022-10-15T18:49:38.764Z,9.35
2022-10-15T18:52:15.829Z,8.38
2022-10-15T18:54:49.051Z,7.57
2022-10-15T18:57:16.302Z,7.93
2022-10-15T18:59:43.330Z,7.88
2022-10-15T19:02:10.362Z,7.85
2022-10-15T19:04:39.187Z,7.65
2022-10-15T19:07:05.957Z,7.78
2022-10-15T19:09:34.559Z,7.93
2022-10-15T19:12:01.355Z,7.95
2022-10-15T19:14:29.031Z,8.18
2022-10-15T19:16:56.722Z,8.82
2022-10-15T19:19:25.248Z,7.32
2022-10-15T19:21:56.063Z,6.97
2022-10-15T19:24:24.136Z,7.45
2022-10-15T19:26:54.607Z,6.28
2022-10-15T19:29:22.059Z,7.00
2022-10-15T19:31:52.662Z,7.43
2022-10-15T19:34:19.470Z,6.97
2022-10-15T19:36:51.081Z,6.45
2022-10-15T19:39:23.339Z,6.60
2022-10-15T19:41:51.904Z,6.80
2022-10-15T19:44:25.391Z,6.00
2022-10-15T19:46:53.585Z,5.20
2022-10-15T19:49:21.229Z,4.38
2022-10-15T19:51:49.514Z,4.15
2022-10-15T19:54:17.374Z,3.58
2022-10-15T19:56:44.316Z,3.60
2022-10-15T19:59:11.812Z,4.35
2022-10-15T20:01:38.723Z,3.95
2022-10-15T20:04:07.155Z,4.65
2022-10-15T20:06:36.344Z,4.03
2022-10-15T20:09:04.082Z,4.07
2022-10-15T20:11:31.249Z,4.05
2022-10-15T20:14:02.028Z,4.47
2022-10-15T20:16:32.790Z,4.50
2022-10-15T20:19:05.383Z,4.78
2022-10-15T20:21:32.533Z,4.53
2022-10-15T20:23:59.404Z,4.35
2022-10-15T20:26:26.200Z,4.05
2022-10-15T20:28:53.457Z,4.22
2022-10-15T20:31:21.508Z,3.95
2022-10-15T20:33:48.708Z,4.45
2022-10-15T20:36:22.661Z,4.82
2022-10-15T20:38:50.839Z,4.78
2022-10-15T20:45:38.136Z,6.00
2022-10-15T20:48:05.295Z,5.40
2022-10-15T20:50:35.406Z,5.97
2022-10-15T20:53:02.694Z,5.93
2022-10-15T20:55:29.799Z,6.35
2022-10-15T20:57:56.643Z,6.22
2022-10-15T21:01:19.451Z,5.53
2022-10-15T21:03:46.277Z,4.82
2022-10-15T21:06:12.985Z,4.80
2022-10-15T21:08:39.783Z,4.47
2022-10-15T21:11:07.779Z,4.32
2022-10-15T21:13:34.935Z,3.75
2022-10-15T21:16:03.989Z,4.68
2022-10-15T21:18:31.236Z,3.30
2022-10-15T21:21:02.645Z,3.72
2022-10-15T21:23:31.060Z,3.85
2022-10-15T21:26:03.721Z,3.20
2022-10-15T21:28:31.531Z,3.55
2022-10-15T21:30:59.406Z,3.40
2022-10-15T21:33:26.286Z,3.22
2022-10-15T21:35:53.027Z,3.42
2022-10-15T21:38:19.725Z,3.60
2022-10-15T21:40:50.107Z,3.13
2022-10-15T21:43:17.247Z,3.17
2022-10-15T21:45:43.994Z,3.47
2022-10-15T21:48:10.699Z,3.45
2022-10-15T21:50:37.403Z,3.33
2022-10-15T21:53:04.258Z,3.30
2022-10-15T21:55:30.971Z,3.10
2022-10-15T21:57:57.694Z,3.00
2022-10-15T22:00:25.486Z,3.10
2022-10-15T22:02:52.193Z,3.45
2022-10-15T22:05:19.597Z,3.08
2022-10-15T22:07:46.400Z,3.03
2022-10-15T22:10:13.244Z,3.20
2022-10-15T22:12:40.322Z,3.03
2022-10-15T22:15:07.455Z,2.70
2022-10-15T22:17:34.145Z,2.70
2022-10-15T22:20:01.483Z,2.35
2022-10-15T22:22:29.074Z,3.00
2022-10-15T22:24:55.856Z,2.80
2022-10-15T22:27:23.404Z,2.60
2022-10-15T22:32:21.839Z,2.83
2022-10-15T22:34:48.602Z,2.85
2022-10-15T22:37:15.314Z,2.50
2022-10-15T22:39:42.049Z,2.70
2022-10-15T22:42:08.790Z,3.00
2022-10-15T22:44:35.523Z,2.50
2022-10-15T22:47:02.285Z,2.75
2022-10-15T22:49:29.089Z,2.78
2022-10-15T22:51:55.985Z,2.78
2022-10-15T22:54:23.313Z,2.70
2022-10-15T22:56:50.987Z,2.83
2022-10-15T22:59:17.932Z,2.65
2022-10-15T23:01:47.874Z,2.47
2022-10-15T23:04:16.058Z,2.35
2022-10-15T23:06:43.806Z,2.47
2022-10-15T23:09:11.224Z,2.97
2022-10-15T23:11:41.180Z,2.40
2022-10-15T23:14:12.426Z,2.50
2022-10-15T23:16:42.437Z,2.53
2022-10-15T23:19:16.556Z,2.40
2022-10-15T23:21:57.694Z,2.50
2022-10-15T23:24:26.440Z,2.70
2022-10-15T23:26:53.467Z,2.60
2022-10-15T23:29:22.503Z,2.30
2022-10-15T23:31:49.762Z,2.30
2022-10-15T23:34:22.040Z,2.53
2022-10-15T23:36:49.372Z,3.20
2022-10-15T23:39:24.023Z,2.70
2022-10-15T23:41:51.011Z,2.75
2022-10-15T23:44:17.940Z,2.30
2022-10-15T23:46:45.047Z,2.50
2022-10-15T23:49:12.412Z,2.85
2022-10-15T23:51:39.694Z,2.65
2022-10-15T23:54:12.958Z,2.92
2022-10-15T23:56:39.653Z,2.58
2022-10-15T23:59:07.283Z,2.72
